sensor_id;sensor_type;location;lat;lon;timestamp;P1;durP1;ratioP1;P2;durP2;ratioP2
2748;SDS011;1382;52.142;11.618;2023-08-07T00:02:02;5.70;;;3.93;;
2748;SDS011;1382;52.142;11.618;2023-08-07T00:04:29;5.00;;;4.23;;
2748;SDS011;1382;52.142;11.618;2023-08-07T00:06:56;3.53;;;3.23;;
2748;SDS011;1382;52.142;11.618;2023-08-07T00:09:23;3.60;;;3.30;;
2748;SDS011;1382;52.142;11.618;2023-08-07T00:11:50;8.13;;;4.47;;
2748;SDS011;1382;52.142;11.618;2023-08-07T00:14:17;7.70;;;4.40;;
2748;SDS011;1382;52.142;11.618;2023-08-07T00:16:44;8.27;;;4.57;;
2748;SDS011;1382;52.142;11.618;2023-08-07T00:19:12;6.33;;;4.10;;
2748;SDS011;1382;52.142;11.618;2023-08-07T00:21:39;8.40;;;4.30;;
2748;SDS011;1382;52.142;11.618;2023-08-07T00:24:06;5.13;;;3.50;;
2748;SDS011;1382;52.142;11.618;2023-08-07T00:26:33;8.83;;;3.97;;
2748;SDS011;1382;52.142;11.618;2023-08-07T00:29:00;5.37;;;4.00;;
2748;SDS011;1382;52.142;11.618;2023-08-07T00:31:26;5.17;;;3.57;;
2748;SDS011;1382;52.142;11.618;2023-08-07T00:33:53;4.73;;;3.47;;
2748;SDS011;1382;52.142;11.618;2023-08-07T00:36:21;12.20;;;4.30;;
2748;SDS011;1382;52.142;11.618;2023-08-07T00:38:48;4.80;;;4.20;;
2748;SDS011;1382;52.142;11.618;2023-08-07T00:41:16;5.43;;;4.23;;
2748;SDS011;1382;52.142;11.618;2023-08-07T00:43:43;5.30;;;4.20;;
2748;SDS011;1382;52.142;11.618;2023-08-07T00:46:10;4.17;;;3.70;;
2748;SDS011;1382;52.142;11.618;2023-08-07T00:48:37;9.83;;;4.57;;
2748;SDS011;1382;52.142;11.618;2023-08-07T00:51:04;5.70;;;3.90;;
2748;SDS011;1382;52.142;11.618;2023-08-07T00:53:32;6.37;;;4.67;;
2748;SDS011;1382;52.142;11.618;2023-08-07T00:55:59;7.63;;;3.80;;
2748;SDS011;1382;52.142;11.618;2023-08-07T00:58:26;4.77;;;3.70;;
2748;SDS011;1382;52.142;11.618;2023-08-07T01:00:53;4.70;;;4.00;;
2748;SDS011;1382;52.142;11.618;2023-08-07T01:03:20;5.83;;;3.70;;
2748;SDS011;1382;52.142;11.618;2023-08-07T01:05:47;5.77;;;3.60;;
2748;SDS011;1382;52.142;11.618;2023-08-07T01:08:13;3.93;;;3.53;;
2748;SDS011;1382;52.142;11.618;2023-08-07T01:10:46;7.30;;;4.43;;
2748;SDS011;1382;52.142;11.618;2023-08-07T01:13:23;6.23;;;4.00;;
2748;SDS011;1382;52.142;11.618;2023-08-07T01:15:55;4.37;;;3.80;;
2748;SDS011;1382;52.142;11.618;2023-08-07T01:18:26;3.90;;;3.30;;
2748;SDS011;1382;52.142;11.618;2023-08-07T01:20:53;4.70;;;3.53;;
2748;SDS011;1382;52.142;11.618;2023-08-07T01:23:21;8.13;;;3.90;;
2748;SDS011;1382;52.142;11.618;2023-08-07T01:25:48;10.30;;;3.87;;
2748;SDS011;1382;52.142;11.618;2023-08-07T01:28:16;6.00;;;4.13;;
2748;SDS011;1382;52.142;11.618;2023-08-07T01:30:53;7.57;;;4.27;;
2748;SDS011;1382;52.142;11.618;2023-08-07T01:33:25;13.00;;;5.07;;
2748;SDS011;1382;52.142;11.618;2023-08-07T01:35:57;9.50;;;4.57;;
2748;SDS011;1382;52.142;11.618;2023-08-07T01:38:28;5.90;;;4.37;;
2748;SDS011;1382;52.142;11.618;2023-08-07T01:40:56;5.90;;;3.40;;
2748;SDS011;1382;52.142;11.618;2023-08-07T01:43:23;6.10;;;3.70;;
2748;SDS011;1382;52.142;11.618;2023-08-07T01:45:50;8.87;;;4.43;;
2748;SDS011;1382;52.142;11.618;2023-08-07T01:48:17;4.67;;;3.43;;
2748;SDS011;1382;52.142;11.618;2023-08-07T01:50:44;5.90;;;3.97;;
2748;SDS011;1382;52.142;11.618;2023-08-07T01:53:11;5.50;;;3.90;;
2748;SDS011;1382;52.142;11.618;2023-08-07T01:55:40;3.93;;;3.57;;
2748;SDS011;1382;52.142;11.618;2023-08-07T01:58:06;4.80;;;4.10;;
2748;SDS011;1382;52.142;11.618;2023-08-07T02:00:33;8.20;;;4.60;;
2748;SDS011;1382;52.142;11.618;2023-08-07T02:03:00;4.73;;;4.20;;
2748;SDS011;1382;52.142;11.618;2023-08-07T02:05:27;6.13;;;3.60;;
2748;SDS011;1382;52.142;11.618;2023-08-07T02:07:54;6.70;;;4.80;;
2748;SDS011;1382;52.142;11.618;2023-08-07T02:10:20;7.93;;;4.50;;
2748;SDS011;1382;52.142;11.618;2023-08-07T02:12:49;5.50;;;4.17;;
2748;SDS011;1382;52.142;11.618;2023-08-07T02:15:15;7.30;;;4.57;;
2748;SDS011;1382;52.142;11.618;2023-08-07T02:17:42;10.60;;;4.57;;
2748;SDS011;1382;52.142;11.618;2023-08-07T02:20:10;5.43;;;4.60;;
2748;SDS011;1382;52.142;11.618;2023-08-07T02:22:37;5.47;;;4.80;;
2748;SDS011;1382;52.142;11.618;2023-08-07T02:25:04;8.80;;;4.63;;
2748;SDS011;1382;52.142;11.618;2023-08-07T02:27:31;4.97;;;4.23;;
2748;SDS011;1382;52.142;11.618;2023-08-07T02:30:00;6.33;;;4.20;;
2748;SDS011;1382;52.142;11.618;2023-08-07T02:32:26;5.47;;;4.60;;
2748;SDS011;1382;52.142;11.618;2023-08-07T02:34:53;7.00;;;4.40;;
2748;SDS011;1382;52.142;11.618;2023-08-07T02:37:20;5.30;;;4.67;;
2748;SDS011;1382;52.142;11.618;2023-08-07T02:39:47;7.23;;;4.80;;
2748;SDS011;1382;52.142;11.618;2023-08-07T02:42:14;5.17;;;4.67;;
2748;SDS011;1382;52.142;11.618;2023-08-07T02:44:41;6.03;;;4.67;;
2748;SDS011;1382;52.142;11.618;2023-08-07T02:47:09;7.20;;;4.60;;
2748;SDS011;1382;52.142;11.618;2023-08-07T02:49:36;5.07;;;4.53;;
2748;SDS011;1382;52.142;11.618;2023-08-07T02:52:03;7.30;;;5.20;;
2748;SDS011;1382;52.142;11.618;2023-08-07T02:54:30;7.03;;;5.30;;
2748;SDS011;1382;52.142;11.618;2023-08-07T02:56:57;12.20;;;5.30;;
2748;SDS011;1382;52.142;11.618;2023-08-07T02:59:24;5.63;;;5.00;;
2748;SDS011;1382;52.142;11.618;2023-08-07T03:01:50;7.87;;;5.33;;
2748;SDS011;1382;52.142;11.618;2023-08-07T03:04:19;4.97;;;4.57;;
2748;SDS011;1382;52.142;11.618;2023-08-07T03:06:45;7.50;;;4.47;;
2748;SDS011;1382;52.142;11.618;2023-08-07T03:09:12;5.50;;;4.83;;
2748;SDS011;1382;52.142;11.618;2023-08-07T03:11:39;7.00;;;4.37;;
2748;SDS011;1382;52.142;11.618;2023-08-07T03:14:06;5.43;;;4.13;;
2748;SDS011;1382;52.142;11.618;2023-08-07T03:16:33;5.67;;;4.30;;
2748;SDS011;1382;52.142;11.618;2023-08-07T03:18:59;4.83;;;3.57;;
2748;SDS011;1382;52.142;11.618;2023-08-07T03:21:28;3.80;;;3.40;;
2748;SDS011;1382;52.142;11.618;2023-08-07T03:23:54;5.10;;;3.33;;
2748;SDS011;1382;52.142;11.618;2023-08-07T03:26:21;5.00;;;3.80;;
2748;SDS011;1382;52.142;11.618;2023-08-07T03:28:48;5.73;;;3.93;;
2748;SDS011;1382;52.142;11.618;2023-08-07T03:31:15;6.10;;;3.60;;
2748;SDS011;1382;52.142;11.618;2023-08-07T03:33:43;4.03;;;3.50;;
2748;SDS011;1382;52.142;11.618;2023-08-07T03:36:09;5.20;;;3.57;;
2748;SDS011;1382;52.142;11.618;2023-08-07T03:38:37;7.00;;;3.70;;
2748;SDS011;1382;52.142;11.618;2023-08-07T03:41:04;11.33;;;5.13;;
2748;SDS011;1382;52.142;11.618;2023-08-07T03:43:31;5.47;;;4.50;;
2748;SDS011;1382;52.142;11.618;2023-08-07T03:45:58;6.90;;;3.73;;
2748;SDS011;1382;52.142;11.618;2023-08-07T03:48:29;4.23;;;3.83;;
2748;SDS011;1382;52.142;11.618;2023-08-07T03:51:01;3.47;;;3.17;;
2748;SDS011;1382;52.142;11.618;2023-08-07T03:53:28;3.93;;;3.53;;
2748;SDS011;1382;52.142;11.618;2023-08-07T03:55:56;5.30;;;4.17;;
2748;SDS011;1382;52.142;11.618;2023-08-07T03:58:23;4.33;;;3.87;;
2748;SDS011;1382;52.142;11.618;2023-08-07T04:00:50;5.10;;;3.93;;
2748;SDS011;1382;52.142;11.618;2023-08-07T04:03:18;5.40;;;3.73;;
2748;SDS011;1382;52.142;11.618;2023-08-07T04:05:46;3.67;;;3.20;;
2748;SDS011;1382;52.142;11.618;2023-08-07T04:08:13;4.23;;;3.83;;
2748;SDS011;1382;52.142;11.618;2023-08-07T04:10:40;4.37;;;3.77;;
2748;SDS011;1382;52.142;11.618;2023-08-07T04:13:08;3.63;;;3.33;;
2748;SDS011;1382;52.142;11.618;2023-08-07T04:15:35;6.73;;;4.00;;
2748;SDS011;1382;52.142;11.618;2023-08-07T04:18:02;7.37;;;4.40;;
2748;SDS011;1382;52.142;11.618;2023-08-07T04:20:29;5.30;;;3.53;;
2748;SDS011;1382;52.142;11.618;2023-08-07T04:22:56;8.07;;;3.83;;
2748;SDS011;1382;52.142;11.618;2023-08-07T04:25:22;5.20;;;4.53;;
2748;SDS011;1382;52.142;11.618;2023-08-07T04:27:49;8.37;;;4.87;;
2748;SDS011;1382;52.142;11.618;2023-08-07T04:30:17;5.00;;;4.10;;
2748;SDS011;1382;52.142;11.618;2023-08-07T04:32:44;4.77;;;4.37;;
2748;SDS011;1382;52.142;11.618;2023-08-07T04:35:11;5.63;;;4.13;;
2748;SDS011;1382;52.142;11.618;2023-08-07T04:37:38;6.80;;;4.20;;
2748;SDS011;1382;52.142;11.618;2023-08-07T04:40:07;5.87;;;4.33;;
2748;SDS011;1382;52.142;11.618;2023-08-07T04:42:34;5.63;;;3.93;;
2748;SDS011;1382;52.142;11.618;2023-08-07T04:45:01;9.50;;;4.23;;
2748;SDS011;1382;52.142;11.618;2023-08-07T04:47:29;4.30;;;3.77;;
2748;SDS011;1382;52.142;11.618;2023-08-07T04:49:56;8.43;;;3.73;;
2748;SDS011;1382;52.142;11.618;2023-08-07T04:52:23;7.57;;;4.10;;
2748;SDS011;1382;52.142;11.618;2023-08-07T04:54:52;9.07;;;4.87;;
2748;SDS011;1382;52.142;11.618;2023-08-07T04:57:19;8.47;;;4.53;;
2748;SDS011;1382;52.142;11.618;2023-08-07T04:59:45;7.70;;;3.90;;
2748;SDS011;1382;52.142;11.618;2023-08-07T05:02:12;7.77;;;4.50;;
2748;SDS011;1382;52.142;11.618;2023-08-07T05:04:40;4.80;;;4.27;;
2748;SDS011;1382;52.142;11.618;2023-08-07T05:07:07;6.40;;;4.67;;
2748;SDS011;1382;52.142;11.618;2023-08-07T05:09:34;5.43;;;4.73;;
2748;SDS011;1382;52.142;11.618;2023-08-07T05:12:01;6.20;;;4.37;;
2748;SDS011;1382;52.142;11.618;2023-08-07T05:14:28;4.37;;;3.93;;
2748;SDS011;1382;52.142;11.618;2023-08-07T05:16:55;6.83;;;4.63;;
2748;SDS011;1382;52.142;11.618;2023-08-07T05:19:22;5.90;;;5.37;;
2748;SDS011;1382;52.142;11.618;2023-08-07T05:21:50;8.03;;;6.37;;
2748;SDS011;1382;52.142;11.618;2023-08-07T05:24:17;7.10;;;6.07;;
2748;SDS011;1382;52.142;11.618;2023-08-07T05:26:44;6.43;;;5.83;;
2748;SDS011;1382;52.142;11.618;2023-08-07T05:29:11;7.90;;;5.70;;
2748;SDS011;1382;52.142;11.618;2023-08-07T05:31:38;5.67;;;5.07;;
2748;SDS011;1382;52.142;11.618;2023-08-07T05:34:04;8.80;;;5.07;;
2748;SDS011;1382;52.142;11.618;2023-08-07T05:36:31;5.20;;;4.73;;
2748;SDS011;1382;52.142;11.618;2023-08-07T05:38:59;6.40;;;4.47;;
2748;SDS011;1382;52.142;11.618;2023-08-07T05:41:26;7.27;;;5.53;;
2748;SDS011;1382;52.142;11.618;2023-08-07T05:43:53;10.43;;;5.43;;
2748;SDS011;1382;52.142;11.618;2023-08-07T05:46:20;9.50;;;5.67;;
2748;SDS011;1382;52.142;11.618;2023-08-07T05:48:47;5.53;;;5.03;;
2748;SDS011;1382;52.142;11.618;2023-08-07T05:51:13;7.47;;;4.43;;
2748;SDS011;1382;52.142;11.618;2023-08-07T05:53:40;5.90;;;4.53;;
2748;SDS011;1382;52.142;11.618;2023-08-07T05:56:08;6.13;;;4.27;;
2748;SDS011;1382;52.142;11.618;2023-08-07T05:58:35;6.40;;;4.37;;
2748;SDS011;1382;52.142;11.618;2023-08-07T06:01:02;9.53;;;4.17;;
2748;SDS011;1382;52.142;11.618;2023-08-07T06:03:29;4.53;;;3.60;;
2748;SDS011;1382;52.142;11.618;2023-08-07T06:05:55;7.43;;;4.10;;
2748;SDS011;1382;52.142;11.618;2023-08-07T06:08:22;6.47;;;3.87;;
2748;SDS011;1382;52.142;11.618;2023-08-07T06:10:49;5.57;;;4.00;;
2748;SDS011;1382;52.142;11.618;2023-08-07T06:13:17;3.97;;;3.57;;
2748;SDS011;1382;52.142;11.618;2023-08-07T06:15:56;5.50;;;3.80;;
2748;SDS011;1382;52.142;11.618;2023-08-07T06:18:22;5.37;;;3.83;;
2748;SDS011;1382;52.142;11.618;2023-08-07T06:20:49;7.13;;;3.70;;
2748;SDS011;1382;52.142;11.618;2023-08-07T06:23:16;4.17;;;3.70;;
2748;SDS011;1382;52.142;11.618;2023-08-07T06:25:43;7.37;;;4.10;;
2748;SDS011;1382;52.142;11.618;2023-08-07T06:28:10;4.03;;;3.40;;
2748;SDS011;1382;52.142;11.618;2023-08-07T06:30:38;2.77;;;2.57;;
2748;SDS011;1382;52.142;11.618;2023-08-07T06:33:04;6.50;;;2.73;;
2748;SDS011;1382;52.142;11.618;2023-08-07T06:35:35;3.70;;;2.60;;
2748;SDS011;1382;52.142;11.618;2023-08-07T06:38:03;7.40;;;2.97;;
2748;SDS011;1382;52.142;11.618;2023-08-07T06:40:30;2.57;;;2.10;;
2748;SDS011;1382;52.142;11.618;2023-08-07T06:42:57;3.30;;;2.00;;
2748;SDS011;1382;52.142;11.618;2023-08-07T06:45:24;2.20;;;2.10;;
2748;SDS011;1382;52.142;11.618;2023-08-07T06:47:52;3.60;;;3.27;;
2748;SDS011;1382;52.142;11.618;2023-08-07T06:50:19;6.60;;;2.77;;
2748;SDS011;1382;52.142;11.618;2023-08-07T06:52:46;2.60;;;2.30;;
2748;SDS011;1382;52.142;11.618;2023-08-07T06:55:13;3.37;;;2.60;;
2748;SDS011;1382;52.142;11.618;2023-08-07T06:57:39;3.77;;;2.33;;
2748;SDS011;1382;52.142;11.618;2023-08-07T07:00:07;2.47;;;2.23;;
2748;SDS011;1382;52.142;11.618;2023-08-07T07:02:34;3.53;;;2.60;;
2748;SDS011;1382;52.142;11.618;2023-08-07T07:05:03;3.73;;;2.90;;
2748;SDS011;1382;52.142;11.618;2023-08-07T07:07:30;3.10;;;2.80;;
2748;SDS011;1382;52.142;11.618;2023-08-07T07:09:56;5.50;;;2.80;;
2748;SDS011;1382;52.142;11.618;2023-08-07T07:12:24;3.70;;;2.80;;
2748;SDS011;1382;52.142;11.618;2023-08-07T07:14:50;4.20;;;3.43;;
2748;SDS011;1382;52.142;11.618;2023-08-07T07:17:17;3.33;;;3.10;;
2748;SDS011;1382;52.142;11.618;2023-08-07T07:19:44;3.47;;;2.77;;
2748;SDS011;1382;52.142;11.618;2023-08-07T07:22:12;4.37;;;3.07;;
2748;SDS011;1382;52.142;11.618;2023-08-07T07:24:39;2.63;;;2.33;;
2748;SDS011;1382;52.142;11.618;2023-08-07T07:27:06;3.13;;;2.83;;
2748;SDS011;1382;52.142;11.618;2023-08-07T07:29:33;2.60;;;2.40;;
2748;SDS011;1382;52.142;11.618;2023-08-07T07:32:00;4.70;;;2.97;;
2748;SDS011;1382;52.142;11.618;2023-08-07T07:34:27;4.60;;;2.30;;
2748;SDS011;1382;52.142;11.618;2023-08-07T07:36:53;6.03;;;2.63;;
2748;SDS011;1382;52.142;11.618;2023-08-07T07:39:22;2.40;;;2.20;;
2748;SDS011;1382;52.142;11.618;2023-08-07T07:41:49;3.03;;;2.40;;
2748;SDS011;1382;52.142;11.618;2023-08-07T07:44:15;2.03;;;1.90;;
2748;SDS011;1382;52.142;11.618;2023-08-07T07:46:42;4.83;;;2.47;;
2748;SDS011;1382;52.142;11.618;2023-08-07T07:49:09;6.17;;;2.43;;
2748;SDS011;1382;52.142;11.618;2023-08-07T07:51:36;9.30;;;2.50;;
2748;SDS011;1382;52.142;11.618;2023-08-07T07:54:03;2.73;;;2.53;;
2748;SDS011;1382;52.142;11.618;2023-08-07T07:56:41;3.10;;;2.10;;
2748;SDS011;1382;52.142;11.618;2023-08-07T07:59:08;2.23;;;2.03;;
2748;SDS011;1382;52.142;11.618;2023-08-07T08:01:35;5.73;;;2.20;;
2748;SDS011;1382;52.142;11.618;2023-08-07T08:04:02;2.60;;;1.97;;
2748;SDS011;1382;52.142;11.618;2023-08-07T08:06:29;2.60;;;2.00;;
2748;SDS011;1382;52.142;11.618;2023-08-07T08:08:56;1.60;;;1.50;;
2748;SDS011;1382;52.142;11.618;2023-08-07T08:11:23;3.37;;;1.87;;
2748;SDS011;1382;52.142;11.618;2023-08-07T08:13:51;2.03;;;1.77;;
2748;SDS011;1382;52.142;11.618;2023-08-07T08:16:18;1.90;;;1.70;;
2748;SDS011;1382;52.142;11.618;2023-08-07T08:18:45;1.77;;;1.67;;
2748;SDS011;1382;52.142;11.618;2023-08-07T08:21:12;4.10;;;1.43;;
2748;SDS011;1382;52.142;11.618;2023-08-07T08:23:39;2.17;;;1.70;;
2748;SDS011;1382;52.142;11.618;2023-08-07T08:26:06;2.63;;;1.70;;
2748;SDS011;1382;52.142;11.618;2023-08-07T08:28:32;1.93;;;1.57;;
2748;SDS011;1382;52.142;11.618;2023-08-07T08:31:01;2.40;;;1.50;;
2748;SDS011;1382;52.142;11.618;2023-08-07T08:33:28;2.10;;;1.90;;
2748;SDS011;1382;52.142;11.618;2023-08-07T08:35:55;3.13;;;1.63;;
2748;SDS011;1382;52.142;11.618;2023-08-07T08:38:22;6.50;;;2.43;;
2748;SDS011;1382;52.142;11.618;2023-08-07T08:40:49;3.77;;;1.70;;
2748;SDS011;1382;52.142;11.618;2023-08-07T08:43:18;2.80;;;1.83;;
2748;SDS011;1382;52.142;11.618;2023-08-07T08:45:45;3.07;;;1.93;;
2748;SDS011;1382;52.142;11.618;2023-08-07T08:48:16;4.93;;;1.90;;
2748;SDS011;1382;52.142;11.618;2023-08-07T08:50:46;2.50;;;1.90;;
2748;SDS011;1382;52.142;11.618;2023-08-07T08:53:13;3.20;;;2.30;;
2748;SDS011;1382;52.142;11.618;2023-08-07T08:55:41;3.50;;;1.87;;
2748;SDS011;1382;52.142;11.618;2023-08-07T08:58:08;2.67;;;1.50;;
2748;SDS011;1382;52.142;11.618;2023-08-07T09:00:35;2.90;;;2.30;;
2748;SDS011;1382;52.142;11.618;2023-08-07T09:03:02;2.90;;;2.27;;
2748;SDS011;1382;52.142;11.618;2023-08-07T09:05:31;3.53;;;2.17;;
2748;SDS011;1382;52.142;11.618;2023-08-07T09:07:58;3.70;;;2.23;;
2748;SDS011;1382;52.142;11.618;2023-08-07T09:10:26;3.07;;;2.30;;
2748;SDS011;1382;52.142;11.618;2023-08-07T09:12:54;2.90;;;2.23;;
2748;SDS011;1382;52.142;11.618;2023-08-07T09:15:29;2.57;;;2.00;;
2748;SDS011;1382;52.142;11.618;2023-08-07T09:17:58;7.13;;;2.60;;
2748;SDS011;1382;52.142;11.618;2023-08-07T09:20:25;2.07;;;1.87;;
2748;SDS011;1382;52.142;11.618;2023-08-07T09:22:54;5.53;;;2.37;;
2748;SDS011;1382;52.142;11.618;2023-08-07T09:25:27;6.63;;;2.27;;
2748;SDS011;1382;52.142;11.618;2023-08-07T09:27:54;3.70;;;2.00;;
2748;SDS011;1382;52.142;11.618;2023-08-07T09:30:21;3.37;;;2.13;;
2748;SDS011;1382;52.142;11.618;2023-08-07T09:32:52;3.17;;;2.87;;
2748;SDS011;1382;52.142;11.618;2023-08-07T09:35:20;3.50;;;2.03;;
2748;SDS011;1382;52.142;11.618;2023-08-07T09:37:47;5.70;;;2.13;;
2748;SDS011;1382;52.142;11.618;2023-08-07T09:40:16;1.70;;;1.60;;
2748;SDS011;1382;52.142;11.618;2023-08-07T09:42:43;2.47;;;1.63;;
2748;SDS011;1382;52.142;11.618;2023-08-07T09:45:20;6.10;;;2.10;;
2748;SDS011;1382;52.142;11.618;2023-08-07T09:47:56;4.53;;;1.53;;
2748;SDS011;1382;52.142;11.618;2023-08-07T09:50:24;2.67;;;2.10;;
2748;SDS011;1382;52.142;11.618;2023-08-07T09:52:51;1.77;;;1.53;;
2748;SDS011;1382;52.142;11.618;2023-08-07T09:55:19;2.47;;;2.07;;
2748;SDS011;1382;52.142;11.618;2023-08-07T09:57:46;3.10;;;2.17;;
2748;SDS011;1382;52.142;11.618;2023-08-07T10:00:13;2.37;;;1.47;;
2748;SDS011;1382;52.142;11.618;2023-08-07T10:02:41;4.40;;;1.70;;
2748;SDS011;1382;52.142;11.618;2023-08-07T10:05:09;6.23;;;1.60;;
2748;SDS011;1382;52.142;11.618;2023-08-07T10:07:36;2.10;;;1.40;;
2748;SDS011;1382;52.142;11.618;2023-08-07T10:10:04;1.63;;;1.30;;
2748;SDS011;1382;52.142;11.618;2023-08-07T10:12:33;1.63;;;1.30;;
2748;SDS011;1382;52.142;11.618;2023-08-07T10:15:00;3.63;;;2.00;;
2748;SDS011;1382;52.142;11.618;2023-08-07T10:17:28;4.50;;;2.00;;
2748;SDS011;1382;52.142;11.618;2023-08-07T10:19:57;3.80;;;1.63;;
2748;SDS011;1382;52.142;11.618;2023-08-07T10:22:24;1.57;;;1.47;;
2748;SDS011;1382;52.142;11.618;2023-08-07T10:24:52;2.43;;;1.67;;
2748;SDS011;1382;52.142;11.618;2023-08-07T10:27:22;2.33;;;2.23;;
2748;SDS011;1382;52.142;11.618;2023-08-07T10:29:53;1.60;;;1.17;;
2748;SDS011;1382;52.142;11.618;2023-08-07T10:32:21;1.97;;;1.83;;
2748;SDS011;1382;52.142;11.618;2023-08-07T10:34:50;2.43;;;1.50;;
2748;SDS011;1382;52.142;11.618;2023-08-07T10:37:31;2.90;;;1.80;;
2748;SDS011;1382;52.142;11.618;2023-08-07T10:40:02;2.77;;;1.40;;
2748;SDS011;1382;52.142;11.618;2023-08-07T10:42:32;1.30;;;1.10;;
2748;SDS011;1382;52.142;11.618;2023-08-07T10:45:17;7.53;;;1.83;;
2748;SDS011;1382;52.142;11.618;2023-08-07T10:47:45;4.23;;;1.57;;
2748;SDS011;1382;52.142;11.618;2023-08-07T10:50:27;1.50;;;1.40;;
2748;SDS011;1382;52.142;11.618;2023-08-07T10:52:55;2.37;;;1.97;;
2748;SDS011;1382;52.142;11.618;2023-08-07T10:55:21;3.60;;;2.17;;
2748;SDS011;1382;52.142;11.618;2023-08-07T10:57:49;2.10;;;1.50;;
2748;SDS011;1382;52.142;11.618;2023-08-07T11:00:16;1.37;;;1.17;;
2748;SDS011;1382;52.142;11.618;2023-08-07T11:02:47;2.37;;;1.80;;
2748;SDS011;1382;52.142;11.618;2023-08-07T11:05:14;2.10;;;1.50;;
2748;SDS011;1382;52.142;11.618;2023-08-07T11:07:42;3.50;;;2.23;;
2748;SDS011;1382;52.142;11.618;2023-08-07T11:10:09;3.90;;;1.50;;
2748;SDS011;1382;52.142;11.618;2023-08-07T11:12:39;2.37;;;1.30;;
2748;SDS011;1382;52.142;11.618;2023-08-07T11:15:06;2.43;;;2.07;;
2748;SDS011;1382;52.142;11.618;2023-08-07T11:17:39;3.23;;;1.97;;
2748;SDS011;1382;52.142;11.618;2023-08-07T11:20:06;1.60;;;1.13;;
2748;SDS011;1382;52.142;11.618;2023-08-07T11:22:34;2.63;;;1.60;;
2748;SDS011;1382;52.142;11.618;2023-08-07T11:25:01;5.00;;;2.33;;
2748;SDS011;1382;52.142;11.618;2023-08-07T11:27:29;7.60;;;1.80;;
2748;SDS011;1382;52.142;11.618;2023-08-07T11:29:56;3.77;;;2.00;;
2748;SDS011;1382;52.142;11.618;2023-08-07T11:32:23;3.83;;;2.13;;
2748;SDS011;1382;52.142;11.618;2023-08-07T11:34:51;4.73;;;2.13;;
2748;SDS011;1382;52.142;11.618;2023-08-07T11:37:18;7.53;;;2.37;;
2748;SDS011;1382;52.142;11.618;2023-08-07T11:39:45;4.00;;;1.80;;
2748;SDS011;1382;52.142;11.618;2023-08-07T11:42:12;5.90;;;2.80;;
2748;SDS011;1382;52.142;11.618;2023-08-07T11:44:40;8.40;;;2.63;;
2748;SDS011;1382;52.142;11.618;2023-08-07T11:47:07;5.00;;;1.90;;
2748;SDS011;1382;52.142;11.618;2023-08-07T11:49:35;5.50;;;2.10;;
2748;SDS011;1382;52.142;11.618;2023-08-07T11:52:04;6.70;;;2.20;;
2748;SDS011;1382;52.142;11.618;2023-08-07T11:54:32;3.23;;;1.60;;
2748;SDS011;1382;52.142;11.618;2023-08-07T11:56:59;3.97;;;1.87;;
2748;SDS011;1382;52.142;11.618;2023-08-07T11:59:26;2.80;;;2.10;;
2748;SDS011;1382;52.142;11.618;2023-08-07T12:01:53;9.43;;;2.80;;
2748;SDS011;1382;52.142;11.618;2023-08-07T12:04:19;4.67;;;2.53;;
2748;SDS011;1382;52.142;11.618;2023-08-07T12:06:53;7.67;;;2.40;;
2748;SDS011;1382;52.142;11.618;2023-08-07T12:09:22;6.47;;;2.37;;
2748;SDS011;1382;52.142;11.618;2023-08-07T12:11:49;4.30;;;2.37;;
2748;SDS011;1382;52.142;11.618;2023-08-07T12:14:21;6.47;;;1.90;;
2748;SDS011;1382;52.142;11.618;2023-08-07T12:16:48;3.33;;;2.03;;
2748;SDS011;1382;52.142;11.618;2023-08-07T12:19:15;3.50;;;1.83;;
2748;SDS011;1382;52.142;11.618;2023-08-07T12:21:42;4.33;;;1.67;;
2748;SDS011;1382;52.142;11.618;2023-08-07T12:24:08;4.13;;;1.80;;
2748;SDS011;1382;52.142;11.618;2023-08-07T12:26:36;4.40;;;1.70;;
2748;SDS011;1382;52.142;11.618;2023-08-07T12:29:03;4.33;;;1.77;;
2748;SDS011;1382;52.142;11.618;2023-08-07T12:31:30;2.53;;;1.40;;
2748;SDS011;1382;52.142;11.618;2023-08-07T12:33:58;5.20;;;1.90;;
2748;SDS011;1382;52.142;11.618;2023-08-07T12:36:44;5.03;;;1.70;;
2748;SDS011;1382;52.142;11.618;2023-08-07T12:39:11;5.30;;;1.90;;
2748;SDS011;1382;52.142;11.618;2023-08-07T12:41:39;3.00;;;1.40;;
2748;SDS011;1382;52.142;11.618;2023-08-07T12:44:09;3.43;;;1.43;;
2748;SDS011;1382;52.142;11.618;2023-08-07T12:46:36;2.07;;;1.13;;
2748;SDS011;1382;52.142;11.618;2023-08-07T12:49:05;5.50;;;1.53;;
2748;SDS011;1382;52.142;11.618;2023-08-07T12:51:33;2.93;;;1.37;;
2748;SDS011;1382;52.142;11.618;2023-08-07T12:54:00;5.57;;;1.90;;
2748;SDS011;1382;52.142;11.618;2023-08-07T12:56:27;5.93;;;1.50;;
2748;SDS011;1382;52.142;11.618;2023-08-07T12:58:55;12.93;;;2.60;;
2748;SDS011;1382;52.142;11.618;2023-08-07T13:01:22;2.83;;;1.43;;
2748;SDS011;1382;52.142;11.618;2023-08-07T13:03:48;4.50;;;2.50;;
2748;SDS011;1382;52.142;11.618;2023-08-07T13:06:15;5.40;;;1.83;;
2748;SDS011;1382;52.142;11.618;2023-08-07T13:08:42;7.07;;;1.60;;
2748;SDS011;1382;52.142;11.618;2023-08-07T13:11:09;5.73;;;2.50;;
2748;SDS011;1382;52.142;11.618;2023-08-07T13:13:36;2.77;;;1.60;;
2748;SDS011;1382;52.142;11.618;2023-08-07T13:16:04;3.90;;;1.93;;
2748;SDS011;1382;52.142;11.618;2023-08-07T13:18:31;6.20;;;2.50;;
2748;SDS011;1382;52.142;11.618;2023-08-07T13:20:58;5.30;;;2.10;;
2748;SDS011;1382;52.142;11.618;2023-08-07T13:23:25;4.30;;;2.50;;
2748;SDS011;1382;52.142;11.618;2023-08-07T13:25:52;4.13;;;2.30;;
2748;SDS011;1382;52.142;11.618;2023-08-07T13:28:19;7.90;;;2.57;;
2748;SDS011;1382;52.142;11.618;2023-08-07T13:30:46;3.50;;;2.00;;
2748;SDS011;1382;52.142;11.618;2023-08-07T13:33:14;4.63;;;2.17;;
2748;SDS011;1382;52.142;11.618;2023-08-07T13:35:41;4.30;;;2.20;;
2748;SDS011;1382;52.142;11.618;2023-08-07T13:38:08;3.47;;;1.80;;
2748;SDS011;1382;52.142;11.618;2023-08-07T13:40:35;6.80;;;1.93;;
2748;SDS011;1382;52.142;11.618;2023-08-07T13:43:01;2.70;;;1.30;;
2748;SDS011;1382;52.142;11.618;2023-08-07T13:45:28;2.03;;;1.40;;
2748;SDS011;1382;52.142;11.618;2023-08-07T13:47:55;5.40;;;1.53;;
2748;SDS011;1382;52.142;11.618;2023-08-07T13:50:23;3.90;;;1.20;;
2748;SDS011;1382;52.142;11.618;2023-08-07T13:52:50;4.27;;;1.53;;
2748;SDS011;1382;52.142;11.618;2023-08-07T13:55:33;2.77;;;1.50;;
2748;SDS011;1382;52.142;11.618;2023-08-07T13:58:00;1.30;;;1.10;;
2748;SDS011;1382;52.142;11.618;2023-08-07T14:00:27;6.30;;;2.00;;
2748;SDS011;1382;52.142;11.618;2023-08-07T14:02:54;1.60;;;0.90;;
2748;SDS011;1382;52.142;11.618;2023-08-07T14:05:21;3.17;;;1.30;;
2748;SDS011;1382;52.142;11.618;2023-08-07T14:07:49;3.00;;;0.90;;
2748;SDS011;1382;52.142;11.618;2023-08-07T14:10:16;2.57;;;1.77;;
2748;SDS011;1382;52.142;11.618;2023-08-07T14:12:44;3.47;;;1.07;;
2748;SDS011;1382;52.142;11.618;2023-08-07T14:15:11;2.47;;;1.73;;
2748;SDS011;1382;52.142;11.618;2023-08-07T14:17:38;3.27;;;1.70;;
2748;SDS011;1382;52.142;11.618;2023-08-07T14:20:05;6.30;;;1.30;;
2748;SDS011;1382;52.142;11.618;2023-08-07T14:22:33;6.73;;;1.53;;
2748;SDS011;1382;52.142;11.618;2023-08-07T14:25:01;1.70;;;1.00;;
2748;SDS011;1382;52.142;11.618;2023-08-07T14:27:28;4.20;;;1.50;;
2748;SDS011;1382;52.142;11.618;2023-08-07T14:29:55;2.97;;;1.60;;
2748;SDS011;1382;52.142;11.618;2023-08-07T14:32:21;4.57;;;2.20;;
2748;SDS011;1382;52.142;11.618;2023-08-07T14:34:49;3.67;;;2.13;;
2748;SDS011;1382;52.142;11.618;2023-08-07T14:37:15;2.20;;;1.30;;
2748;SDS011;1382;52.142;11.618;2023-08-07T14:39:42;4.63;;;1.40;;
2748;SDS011;1382;52.142;11.618;2023-08-07T14:42:11;2.70;;;1.37;;
2748;SDS011;1382;52.142;11.618;2023-08-07T14:44:37;5.07;;;1.93;;
2748;SDS011;1382;52.142;11.618;2023-08-07T14:47:04;4.57;;;2.20;;
2748;SDS011;1382;52.142;11.618;2023-08-07T14:49:31;3.63;;;1.50;;
2748;SDS011;1382;52.142;11.618;2023-08-07T14:51:58;4.50;;;1.70;;
2748;SDS011;1382;52.142;11.618;2023-08-07T14:54:26;4.73;;;2.00;;
2748;SDS011;1382;52.142;11.618;2023-08-07T14:56:52;5.37;;;2.30;;
2748;SDS011;1382;52.142;11.618;2023-08-07T14:59:21;4.03;;;1.90;;
2748;SDS011;1382;52.142;11.618;2023-08-07T15:01:47;4.17;;;2.20;;
2748;SDS011;1382;52.142;11.618;2023-08-07T15:04:14;9.00;;;1.97;;